createdAt,value
2022-12-16T06:50:44.469Z,84.78
2022-12-16T06:54:06.621Z,82.70
2022-12-16T06:57:28.503Z,76.20
2022-12-16T07:00:52.664Z,82.88
2022-12-16T07:04:17.312Z,81.18
2022-12-16T07:07:43.283Z,76.10
2022-12-16T07:11:16.204Z,75.20
2022-12-16T07:14:42.109Z,74.68
2022-12-16T07:18:05.938Z,77.07
2022-12-16T07:21:27.913Z,69.78
2022-12-16T07:25:02.718Z,82.53
2022-12-16T07:28:25.354Z,83.10
2022-12-16T07:31:47.317Z,82.93
2022-12-16T07:35:09.424Z,73.22
2022-12-16T07:38:32.309Z,75.35
2022-12-16T07:41:54.870Z,80.75
2022-12-16T07:45:18.118Z,77.75
2022-12-16T07:48:40.424Z,91.68
2022-12-16T07:52:03.373Z,93.13
2022-12-16T07:55:25.758Z,88.68
2022-12-16T07:58:48.357Z,94.68
2022-12-16T08:02:10.329Z,78.93
2022-12-16T08:05:32.187Z,86.75
2022-12-16T08:08:54.110Z,80.80
2022-12-16T08:12:17.035Z,104.18
2022-12-16T08:15:43.692Z,85.78
2022-12-16T08:19:10.779Z,81.18
2022-12-16T08:22:33.765Z,73.93
2022-12-16T08:25:56.602Z,84.00
2022-12-16T08:29:43.044Z,74.43
2022-12-16T08:33:07.148Z,98.32
2022-12-16T08:36:39.401Z,80.05
2022-12-16T08:40:33.125Z,78.57
2022-12-16T08:43:42.986Z,74.43
2022-12-16T08:47:04.906Z,69.50
2022-12-16T08:50:28.923Z,69.30
2022-12-16T08:53:50.962Z,62.72
2022-12-16T08:57:12.939Z,66.80
2022-12-16T09:00:35.073Z,59.78
2022-12-16T09:03:57.506Z,66.35
2022-12-16T09:07:19.489Z,53.95
2022-12-16T09:10:41.782Z,59.85
2022-12-16T09:14:03.628Z,64.13
2022-12-16T09:17:25.345Z,70.68
2022-12-16T09:20:47.120Z,58.50
2022-12-16T09:24:09.009Z,60.70
2022-12-16T09:27:31.120Z,59.78
2022-12-16T09:30:52.852Z,48.90
2022-12-16T09:34:14.822Z,58.05
2022-12-16T09:37:37.706Z,57.47
2022-12-16T09:41:02.542Z,53.75
2022-12-16T09:44:50.308Z,53.22
2022-12-16T09:48:37.519Z,57.70
2022-12-16T09:52:00.278Z,55.75
2022-12-16T09:55:24.774Z,50.55
2022-12-16T09:58:52.714Z,51.58
2022-12-16T10:02:15.466Z,56.00
2022-12-16T10:05:43.938Z,51.83
2022-12-16T10:09:28.420Z,49.47
2022-12-16T10:13:11.019Z,52.15
2022-12-16T10:17:01.153Z,50.72
2022-12-16T10:20:50.007Z,54.20
2022-12-16T10:24:22.963Z,49.90
2022-12-16T10:28:03.690Z,48.13
2022-12-16T10:31:34.206Z,48.80
2022-12-16T10:34:58.789Z,46.97
2022-12-16T10:38:20.816Z,45.65
2022-12-16T10:41:46.487Z,55.53
2022-12-16T10:48:32.378Z,50.22
2022-12-16T10:51:54.234Z,53.42
2022-12-16T10:55:42.422Z,44.03
2022-12-16T11:02:39.356Z,31.85
2022-12-16T11:06:01.196Z,24.55
2022-12-16T11:09:51.255Z,33.03
2022-12-16T11:13:13.180Z,38.17
2022-12-16T11:16:44.453Z,40.17
2022-12-16T11:20:06.312Z,45.70
2022-12-16T11:23:45.677Z,39.85
2022-12-16T11:27:17.200Z,38.17
2022-12-16T11:30:42.615Z,44.03
2022-12-16T11:34:05.524Z,39.28
2022-12-16T11:37:29.308Z,39.50
2022-12-16T11:40:51.666Z,36.00
2022-12-16T11:44:15.717Z,39.08
2022-12-16T11:47:56.039Z,37.63
2022-12-16T11:51:18.326Z,40.13
2022-12-16T11:54:46.386Z,39.05
2022-12-16T11:58:18.145Z,34.03
2022-12-16T12:01:48.558Z,33.13
2022-12-16T12:05:10.873Z,32.97
2022-12-16T12:08:45.213Z,28.58
2022-12-16T12:12:34.806Z,28.40
2022-12-16T12:16:08.213Z,27.20
2022-12-16T12:19:42.183Z,26.33
2022-12-16T12:23:06.577Z,23.23
2022-12-16T12:26:45.422Z,23.85
2022-12-16T12:30:30.951Z,22.88
2022-12-16T12:34:21.877Z,27.60
2022-12-16T12:37:53.313Z,24.02
2022-12-16T12:41:27.346Z,27.15
2022-12-16T12:45:15.735Z,25.58
2022-12-16T12:48:44.517Z,26.10
2022-12-16T12:52:34.991Z,25.92
2022-12-16T12:56:31.408Z,27.17
2022-12-16T13:00:06.905Z,30.20
2022-12-16T13:03:57.140Z,25.42
2022-12-16T13:07:21.226Z,25.40
2022-12-16T13:10:46.103Z,28.15
2022-12-16T13:14:07.859Z,22.42
2022-12-16T13:17:30.390Z,23.25
2022-12-16T13:20:52.051Z,23.55
2022-12-16T13:24:13.674Z,27.10
2022-12-16T13:27:36.835Z,21.00
2022-12-16T13:30:58.805Z,27.20
2022-12-16T13:34:27.201Z,28.40
2022-12-16T13:37:48.841Z,30.48
2022-12-16T13:41:26.735Z,28.58
2022-12-16T13:45:03.650Z,25.73
2022-12-16T13:48:44.891Z,22.60
2022-12-16T13:52:19.661Z,27.10
2022-12-16T13:55:48.321Z,26.08
2022-12-16T13:59:14.241Z,35.47
2022-12-16T14:02:43.226Z,26.42
2022-12-16T14:06:05.111Z,24.42
2022-12-16T14:09:34.588Z,30.38
2022-12-16T14:13:23.884Z,29.55
2022-12-16T14:17:11.190Z,32.05
2022-12-16T14:20:45.705Z,30.75
2022-12-16T14:24:16.123Z,29.50
2022-12-16T14:27:41.036Z,28.60
2022-12-16T14:31:02.856Z,29.83
2022-12-16T14:34:24.697Z,27.90
2022-12-16T14:38:01.392Z,45.00
2022-12-16T14:41:23.042Z,32.97
2022-12-16T14:44:45.275Z,27.65
2022-12-16T14:48:06.889Z,35.58
2022-12-16T14:51:47.784Z,29.92
2022-12-16T14:55:09.389Z,32.38
2022-12-16T14:58:34.930Z,34.10
2022-12-16T15:01:56.793Z,34.03
2022-12-16T15:05:19.034Z,31.00
2022-12-16T15:08:41.928Z,43.40
2022-12-16T15:12:04.811Z,32.60
2022-12-16T15:15:33.378Z,33.15
2022-12-16T15:19:02.663Z,35.00
2022-12-16T15:22:24.539Z,28.77
2022-12-16T15:25:47.120Z,33.28
2022-12-16T15:29:08.894Z,28.55
2022-12-16T15:32:45.951Z,29.95
2022-12-16T15:36:07.580Z,34.47
2022-12-16T15:39:40.266Z,38.47
2022-12-16T15:43:02.384Z,30.60
2022-12-16T15:46:24.300Z,34.78
2022-12-16T15:49:57.984Z,35.45
2022-12-16T15:53:58.298Z,35.63
2022-12-16T15:57:20.110Z,38.05
2022-12-16T16:00:50.780Z,43.25
2022-12-16T16:04:15.776Z,45.05
2022-12-16T16:07:43.182Z,46.55
2022-12-16T16:11:05.615Z,42.15
2022-12-16T16:14:27.209Z,46.45
2022-12-16T16:17:50.000Z,45.90
2022-12-16T16:21:11.977Z,48.22
2022-12-16T16:24:34.826Z,51.05
2022-12-16T16:27:57.336Z,41.90
2022-12-16T16:31:19.176Z,42.03
2022-12-16T16:34:40.784Z,47.58
2022-12-16T16:38:02.446Z,41.58
2022-12-16T16:41:24.499Z,44.58
2022-12-16T16:44:46.078Z,46.83
2022-12-16T16:48:07.691Z,46.38
2022-12-16T16:51:29.288Z,47.15
2022-12-16T16:54:50.900Z,49.72
2022-12-16T16:58:12.745Z,44.42
